Time;durP1;ratioP1;P1;durP2;ratioP2;P2;SDS_P1;SDS_P2;PMS_P1;PMS_P2;Temp;Humidity;BMP_temperature;BMP_pressure;BME280_temperature;BME280_humidity;BME280_pressure;Samples;Min_cycle;Max_cycle;Signal;HPM_P1;HPM_P2
2023/02/16 00:00:32;;;;;;;53.97;27.17;;;;;;;;;;5078404;28;20043;-77
2023/02/16 00:02:58;;;;;;;52.63;29.10;;;;;;;;;;5082648;28;20285;-77
2023/02/16 00:05:28;;;;;;;50.53;29.63;;;;;;;;;;5067438;28;20357;-76
2023/02/16 00:07:55;;;;;;;55.37;30.07;;;;;;;;;;5081477;28;20040;-77
2023/02/16 00:10:21;;;;;;;55.80;28.93;;;;;;;;;;5073289;28;20289;-77
2023/02/16 00:15:32;;;;;;;58.87;30.70;;;;;;;;;;5078998;28;20381;-75
2023/02/16 00:18:02;;;;;;;63.93;29.97;;;;;;;;;;5066445;28;20279;-75
2023/02/16 00:20:29;;;;;;;51.47;28.17;;;;;;;;;;5066385;28;20603;-77
2023/02/16 00:22:57;;;;;;;63.10;31.63;;;;;;;;;;5065421;28;20595;-76
2023/02/16 00:25:24;;;;;;;63.83;31.87;;;;;;;;;;5082796;28;20275;-77
2023/02/16 00:27:50;;;;;;;63.53;30.13;;;;;;;;;;5062751;28;20297;-77
2023/02/16 00:30:17;;;;;;;65.27;31.67;;;;;;;;;;5068376;28;20273;-77
2023/02/16 00:32:43;;;;;;;58.97;30.67;;;;;;;;;;5063361;28;20322;-77
2023/02/16 00:35:14;;;;;;;69.27;35.27;;;;;;;;;;5079892;28;20281;-77
2023/02/16 00:37:40;;;;;;;65.20;31.97;;;;;;;;;;5078292;28;21214;-76
2023/02/16 00:40:06;;;;;;;61.57;31.93;;;;;;;;;;5079139;28;20339;-77
2023/02/16 00:42:33;;;;;;;62.17;31.80;;;;;;;;;;5077874;28;20037;-77
2023/02/16 00:44:59;;;;;;;68.47;33.60;;;;;;;;;;5062800;28;20277;-77
2023/02/16 00:47:30;;;;;;;63.47;31.80;;;;;;;;;;5078079;28;20564;-77
2023/02/16 00:49:57;;;;;;;55.63;30.27;;;;;;;;;;5079499;28;20710;-77
2023/02/16 00:52:28;;;;;;;58.77;30.33;;;;;;;;;;5070156;28;20327;-76
2023/02/16 00:54:54;;;;;;;64.83;32.27;;;;;;;;;;5079653;28;20285;-75
2023/02/16 00:57:21;;;;;;;62.27;32.20;;;;;;;;;;5077650;28;20370;-75
2023/02/16 00:59:48;;;;;;;63.90;33.07;;;;;;;;;;5076950;28;20270;-76
2023/02/16 01:02:14;;;;;;;63.27;33.40;;;;;;;;;;5066228;28;20271;-76
2023/02/16 01:04:40;;;;;;;65.77;32.23;;;;;;;;;;5067967;28;20279;-75
2023/02/16 01:12:47;;;;;;;68.40;32.20;;;;;;;;;;5080140;28;20301;-77
2023/02/16 01:15:14;;;;;;;69.80;34.07;;;;;;;;;;5070758;28;20331;-77
2023/02/16 01:17:40;;;;;;;64.63;33.07;;;;;;;;;;5078968;28;20278;-76
2023/02/16 01:20:14;;;;;;;68.60;34.67;;;;;;;;;;5075135;28;20665;-76
2023/02/16 01:22:40;;;;;;;72.40;33.10;;;;;;;;;;5078647;28;20266;-76
2023/02/16 01:25:06;;;;;;;70.43;33.47;;;;;;;;;;5062595;28;20283;-76
2023/02/16 01:27:33;;;;;;;74.50;34.57;;;;;;;;;;5062736;28;20047;-76
2023/02/16 01:29:59;;;;;;;69.33;31.83;;;;;;;;;;5078172;28;20306;-76
2023/02/16 01:32:27;;;;;;;63.77;32.93;;;;;;;;;;5066262;28;20313;-76
2023/02/16 01:34:53;;;;;;;79.20;34.17;;;;;;;;;;5062450;28;20036;-77
2023/02/16 01:37:19;;;;;;;73.90;33.07;;;;;;;;;;5072340;28;20266;-77
2023/02/16 01:39:48;;;;;;;68.27;33.70;;;;;;;;;;5076561;28;20032;-77
2023/02/16 01:42:23;;;;;;;66.03;33.17;;;;;;;;;;5081444;28;20024;-76
2023/02/16 01:44:59;;;;;;;68.93;33.03;;;;;;;;;;5082285;28;20274;-77
2023/02/16 01:47:36;;;;;;;69.93;33.27;;;;;;;;;;5077187;28;20336;-76
2023/02/16 01:50:23;;;;;;;64.23;32.83;;;;;;;;;;5077653;28;20270;-77
2023/02/16 01:52:52;;;;;;;72.80;34.13;;;;;;;;;;5059281;28;20302;-77
2023/02/16 01:55:21;;;;;;;69.40;33.47;;;;;;;;;;5081127;28;21865;-77
2023/02/16 01:57:56;;;;;;;73.30;35.03;;;;;;;;;;5082911;28;20273;-76
2023/02/16 02:00:28;;;;;;;77.13;35.03;;;;;;;;;;5078188;28;20263;-76
2023/02/16 02:05:47;;;;;;;71.53;34.23;;;;;;;;;;5078255;28;20297;-76
2023/02/16 02:08:19;;;;;;;74.20;34.63;;;;;;;;;;5078255;28;21793;-77
2023/02/16 02:11:21;;;;;;;72.28;34.58;;;;;;;;;;5063950;28;20282;-77
2023/02/16 02:13:51;;;;;;;79.67;34.07;;;;;;;;;;4990945;28;20042;-76
2023/02/16 02:16:19;;;;;;;69.13;33.03;;;;;;;;;;5056322;28;20285;-77
2023/02/16 02:18:45;;;;;;;72.67;34.00;;;;;;;;;;5083229;28;20282;-77
2023/02/16 02:24:13;;;;;;;66.22;32.90;;;;;;;;;;5084496;28;20031;-77
2023/02/16 02:26:55;;;;;;;73.87;34.63;;;;;;;;;;5098398;28;20028;-77
2023/02/16 02:29:36;;;;;;;73.37;34.40;;;;;;;;;;5065938;28;20386;-76
2023/02/16 02:32:38;;;;;;;81.47;35.40;;;;;;;;;;5080641;28;20343;-76
2023/02/16 02:35:18;;;;;;;75.33;35.03;;;;;;;;;;4985244;28;20299;-77
2023/02/16 02:37:49;;;;;;;74.93;35.40;;;;;;;;;;5055308;28;20279;-76
2023/02/16 02:40:26;;;;;;;73.20;35.17;;;;;;;;;;5053726;28;20278;-77
2023/02/16 02:43:18;;;;;;;76.27;35.70;;;;;;;;;;5067436;28;20365;-77
2023/02/16 02:45:54;;;;;;;82.95;36.17;;;;;;;;;;5093636;28;20722;-75
2023/02/16 02:48:20;;;;;;;86.17;37.27;;;;;;;;;;5080150;28;20034;-77
2023/02/16 02:53:47;;;;;;;89.63;39.83;;;;;;;;;;5097224;28;20312;-77
2023/02/16 03:01:49;;;;;;;82.37;37.73;;;;;;;;;;5101975;28;20632;-77
2023/02/16 03:04:18;;;;;;;85.33;38.87;;;;;;;;;;5081064;28;20262;-78
2023/02/16 03:06:47;;;;;;;86.07;37.73;;;;;;;;;;5080318;28;20302;-77
2023/02/16 03:09:14;;;;;;;87.00;38.53;;;;;;;;;;5072095;28;20591;-77
2023/02/16 03:14:30;;;;;;;79.83;37.83;;;;;;;;;;5097799;28;20726;-77
2023/02/16 03:31:16;;;;;;;82.70;38.07;;;;;;;;;;5096956;28;20332;-76
2023/02/16 03:33:42;;;;;;;88.47;36.83;;;;;;;;;;5079724;28;20772;-77
2023/02/16 03:36:09;;;;;;;82.90;38.13;;;;;;;;;;5093359;28;20259;-77
2023/02/16 03:38:36;;;;;;;89.03;38.60;;;;;;;;;;5075026;28;20277;-77
2023/02/16 03:41:03;;;;;;;84.83;37.67;;;;;;;;;;5065215;28;20621;-77
2023/02/16 03:43:29;;;;;;;87.93;39.07;;;;;;;;;;5079003;28;20673;-77
2023/02/16 03:45:55;;;;;;;85.73;37.40;;;;;;;;;;5075041;28;20286;-76
2023/02/16 03:48:21;;;;;;;92.33;39.30;;;;;;;;;;5078956;28;20119;-77
2023/02/16 03:50:47;;;;;;;94.60;39.10;;;;;;;;;;5085495;28;20275;-77
2023/02/16 03:53:13;;;;;;;87.73;38.97;;;;;;;;;;5078738;28;20285;-77
2023/02/16 03:55:40;;;;;;;92.00;39.63;;;;;;;;;;5079414;28;20460;-77
2023/02/16 03:58:08;;;;;;;98.17;42.53;;;;;;;;;;5089099;28;20042;-77
2023/02/16 04:00:36;;;;;;;92.57;41.27;;;;;;;;;;5078558;28;20722;-77
2023/02/16 04:03:03;;;;;;;89.13;39.60;;;;;;;;;;5082112;28;20274;-77
2023/02/16 04:05:29;;;;;;;94.37;41.00;;;;;;;;;;5079291;28;20317;-76
2023/02/16 04:07:55;;;;;;;89.13;38.13;;;;;;;;;;5089679;28;20714;-77
2023/02/16 04:10:22;;;;;;;91.43;40.47;;;;;;;;;;5078338;28;20089;-77
2023/02/16 04:12:48;;;;;;;90.33;40.40;;;;;;;;;;5078669;28;20282;-77
2023/02/16 04:15:18;;;;;;;84.63;39.27;;;;;;;;;;5087954;28;20273;-77
2023/02/16 04:17:44;;;;;;;99.93;38.80;;;;;;;;;;5083420;28;20276;-77
2023/02/16 04:20:12;;;;;;;95.20;40.53;;;;;;;;;;5069692;28;20293;-77
2023/02/16 04:22:39;;;;;;;96.77;38.80;;;;;;;;;;5083283;28;20028;-77
2023/02/16 04:25:05;;;;;;;99.67;40.60;;;;;;;;;;5079662;28;21524;-78
2023/02/16 04:27:31;;;;;;;91.17;39.10;;;;;;;;;;5062910;28;20285;-78
2023/02/16 04:29:57;;;;;;;98.83;40.97;;;;;;;;;;5063313;28;20285;-77
2023/02/16 04:32:23;;;;;;;92.80;40.47;;;;;;;;;;5079812;28;20295;-77
2023/02/16 04:34:49;;;;;;;89.60;38.47;;;;;;;;;;5065803;28;20424;-76
2023/02/16 04:37:15;;;;;;;90.83;40.13;;;;;;;;;;5062071;28;20039;-77
2023/02/16 04:39:41;;;;;;;100.83;41.13;;;;;;;;;;5061835;28;20449;-77
2023/02/16 04:42:07;;;;;;;104.53;40.10;;;;;;;;;;5065467;28;20279;-77
2023/02/16 04:44:33;;;;;;;98.83;40.53;;;;;;;;;;5067376;28;20021;-77
2023/02/16 04:46:59;;;;;;;95.77;39.60;;;;;;;;;;5063348;28;20568;-76
2023/02/16 04:49:25;;;;;;;91.53;39.63;;;;;;;;;;5061763;28;20284;-75
2023/02/16 04:51:51;;;;;;;85.83;38.73;;;;;;;;;;5077369;28;20068;-77
2023/02/16 04:54:17;;;;;;;92.03;39.80;;;;;;;;;;5072772;28;20042;-77
2023/02/16 04:56:46;;;;;;;97.63;40.37;;;;;;;;;;5060925;28;20262;-77
2023/02/16 04:59:15;;;;;;;96.40;39.57;;;;;;;;;;5077596;28;20274;-77
2023/02/16 05:01:41;;;;;;;96.80;40.87;;;;;;;;;;5066080;28;20271;-77
2023/02/16 05:04:10;;;;;;;95.50;39.73;;;;;;;;;;5078952;28;20317;-78
2023/02/16 05:06:37;;;;;;;95.03;39.53;;;;;;;;;;5062707;28;20328;-76
2023/02/16 05:09:03;;;;;;;105.00;40.57;;;;;;;;;;5079813;28;20289;-77
2023/02/16 05:17:02;;;;;;;99.93;41.83;;;;;;;;;;5079033;28;21331;-77
2023/02/16 05:19:28;;;;;;;106.47;42.90;;;;;;;;;;5077894;28;20311;-77
2023/02/16 05:21:54;;;;;;;104.20;42.50;;;;;;;;;;5067159;28;20342;-77
2023/02/16 05:24:20;;;;;;;103.70;42.47;;;;;;;;;;5062021;28;20467;-77
2023/02/16 05:26:48;;;;;;;97.67;40.27;;;;;;;;;;5076121;28;20267;-78
2023/02/16 05:29:14;;;;;;;102.47;40.53;;;;;;;;;;5066191;28;20045;-77
2023/02/16 05:31:43;;;;;;;109.80;41.90;;;;;;;;;;5062569;28;20725;-77
2023/02/16 05:34:09;;;;;;;106.23;41.77;;;;;;;;;;5061943;28;20090;-76
2023/02/16 05:36:35;;;;;;;106.80;43.23;;;;;;;;;;5059411;28;20306;-77
2023/02/16 05:39:01;;;;;;;115.63;42.00;;;;;;;;;;5079243;28;20337;-78
2023/02/16 05:41:27;;;;;;;101.93;41.50;;;;;;;;;;5061665;28;20452;-78
2023/02/16 05:43:54;;;;;;;105.53;41.70;;;;;;;;;;5079004;28;20273;-77
2023/02/16 05:46:21;;;;;;;101.50;42.83;;;;;;;;;;5080225;28;20028;-76
2023/02/16 05:48:47;;;;;;;109.43;44.03;;;;;;;;;;5063317;28;20283;-78
2023/02/16 05:51:14;;;;;;;108.03;41.73;;;;;;;;;;5084170;28;20364;-78
2023/02/16 05:53:40;;;;;;;109.63;43.00;;;;;;;;;;5071003;28;20279;-78
2023/02/16 05:56:06;;;;;;;106.97;42.00;;;;;;;;;;5086134;28;20289;-77
2023/02/16 05:58:32;;;;;;;110.83;43.53;;;;;;;;;;5083103;28;20024;-78
2023/02/16 06:01:00;;;;;;;107.73;42.40;;;;;;;;;;5065761;28;20266;-78
2023/02/16 06:03:26;;;;;;;111.33;43.07;;;;;;;;;;5079249;28;20369;-77
2023/02/16 06:05:56;;;;;;;123.87;44.43;;;;;;;;;;5065097;28;20279;-76
2023/02/16 06:08:21;;;;;;;103.40;41.73;;;;;;;;;;5081047;28;20358;-77
2023/02/16 06:10:51;;;;;;;100.40;42.40;;;;;;;;;;5083437;28;20360;-77
2023/02/16 06:13:17;;;;;;;96.43;43.10;;;;;;;;;;5074108;28;20036;-77
2023/02/16 06:15:44;;;;;;;101.30;42.67;;;;;;;;;;5064465;28;20270;-77
2023/02/16 06:18:10;;;;;;;93.70;41.70;;;;;;;;;;5069079;28;20278;-78
2023/02/16 06:20:36;;;;;;;98.50;42.33;;;;;;;;;;5083878;28;20343;-77
2023/02/16 06:23:02;;;;;;;93.70;41.40;;;;;;;;;;5065490;28;20332;-76
2023/02/16 06:25:28;;;;;;;94.03;43.43;;;;;;;;;;5083124;28;20283;-78
2023/02/16 06:27:55;;;;;;;88.13;40.93;;;;;;;;;;5078008;28;20048;-78
2023/02/16 06:30:22;;;;;;;82.37;39.90;;;;;;;;;;5066014;28;20437;-76
2023/02/16 06:32:48;;;;;;;76.20;36.47;;;;;;;;;;5083288;28;20592;-77
2023/02/16 06:35:14;;;;;;;82.23;38.17;;;;;;;;;;5070250;28;20286;-77
2023/02/16 06:37:40;;;;;;;80.23;38.30;;;;;;;;;;5079173;28;20291;-78
2023/02/16 06:40:08;;;;;;;80.67;39.30;;;;;;;;;;5066006;28;20298;-76
2023/02/16 06:42:34;;;;;;;77.97;36.50;;;;;;;;;;5080788;28;20093;-77
2023/02/16 06:45:00;;;;;;;75.97;36.87;;;;;;;;;;5083299;28;20708;-77
2023/02/16 06:47:26;;;;;;;76.47;38.20;;;;;;;;;;5086937;28;20766;-77
2023/02/16 06:49:53;;;;;;;76.83;37.27;;;;;;;;;;5084341;28;20301;-78
2023/02/16 06:52:19;;;;;;;77.67;36.73;;;;;;;;;;5085678;28;20286;-77
2023/02/16 06:54:44;;;;;;;71.27;36.97;;;;;;;;;;5100942;28;20271;-76
2023/02/16 06:57:10;;;;;;;71.37;37.47;;;;;;;;;;5083704;28;20801;-78
2023/02/16 06:59:36;;;;;;;74.17;38.07;;;;;;;;;;5076743;28;20028;-78
2023/02/16 07:02:02;;;;;;;77.10;38.20;;;;;;;;;;5080057;28;20024;-76
2023/02/16 07:04:31;;;;;;;72.17;35.93;;;;;;;;;;5065000;28;20459;-76
2023/02/16 07:06:57;;;;;;;61.73;33.57;;;;;;;;;;5081495;28;20611;-77
2023/02/16 07:09:23;;;;;;;67.67;35.00;;;;;;;;;;5061597;28;20034;-77
2023/02/16 07:11:49;;;;;;;60.03;31.17;;;;;;;;;;5064069;28;20024;-77
2023/02/16 07:14:15;;;;;;;64.47;34.33;;;;;;;;;;5067389;28;20028;-76
2023/02/16 07:16:42;;;;;;;57.10;32.27;;;;;;;;;;5079292;28;20032;-76
2023/02/16 07:19:08;;;;;;;56.10;31.50;;;;;;;;;;5068170;28;20276;-77
2023/02/16 07:21:34;;;;;;;55.97;30.50;;;;;;;;;;5063521;28;20028;-78
2023/02/16 07:24:00;;;;;;;54.17;31.07;;;;;;;;;;5062857;28;20064;-77
2023/02/16 07:26:26;;;;;;;55.23;31.17;;;;;;;;;;5070686;28;20093;-77
2023/02/16 07:28:54;;;;;;;51.57;29.50;;;;;;;;;;5077461;28;20047;-78
2023/02/16 07:31:20;;;;;;;54.67;30.00;;;;;;;;;;5063404;28;20036;-78
2023/02/16 07:33:46;;;;;;;56.33;29.67;;;;;;;;;;5072167;28;20032;-77
2023/02/16 07:36:12;;;;;;;57.93;28.70;;;;;;;;;;5081647;28;20024;-76
2023/02/16 07:38:40;;;;;;;51.70;30.37;;;;;;;;;;5066232;28;20029;-79
2023/02/16 07:41:06;;;;;;;49.63;29.90;;;;;;;;;;5062022;28;20534;-77
2023/02/16 07:43:33;;;;;;;52.87;28.90;;;;;;;;;;5062645;28;20047;-77
2023/02/16 07:46:01;;;;;;;51.00;28.77;;;;;;;;;;5069953;28;20028;-77
2023/02/16 07:48:27;;;;;;;54.60;29.87;;;;;;;;;;5082989;28;20029;-78
2023/02/16 07:50:53;;;;;;;46.43;27.47;;;;;;;;;;5064586;28;20047;-78
2023/02/16 07:53:19;;;;;;;50.93;28.13;;;;;;;;;;5078714;28;20031;-76
2023/02/16 07:55:46;;;;;;;47.73;28.90;;;;;;;;;;5076935;28;20061;-77
2023/02/16 07:58:26;;;;;;;50.37;28.20;;;;;;;;;;5077733;28;20039;-78
2023/02/16 08:00:52;;;;;;;50.50;27.93;;;;;;;;;;5080678;28;20077;-79
2023/02/16 08:03:18;;;;;;;54.90;28.47;;;;;;;;;;5064490;28;20040;-77
2023/02/16 08:05:44;;;;;;;52.17;28.03;;;;;;;;;;5080097;28;20033;-77
2023/02/16 08:08:10;;;;;;;51.03;26.60;;;;;;;;;;5062587;28;20115;-78
2023/02/16 08:10:39;;;;;;;51.00;28.07;;;;;;;;;;5064515;28;21635;-77
2023/02/16 08:13:05;;;;;;;49.23;28.27;;;;;;;;;;5061537;28;20074;-77
2023/02/16 08:15:31;;;;;;;45.07;27.47;;;;;;;;;;5082168;28;20036;-77
2023/02/16 08:17:57;;;;;;;45.07;25.60;;;;;;;;;;5082831;28;20020;-78
2023/02/16 08:20:23;;;;;;;43.43;26.17;;;;;;;;;;5066727;28;20031;-76
2023/02/16 08:22:49;;;;;;;53.03;27.23;;;;;;;;;;5081986;28;20797;-78
2023/02/16 08:25:15;;;;;;;52.03;28.67;;;;;;;;;;5070673;28;20028;-78
2023/02/16 08:27:43;;;;;;;50.07;28.33;;;;;;;;;;5065926;28;20036;-78
2023/02/16 08:30:11;;;;;;;47.00;27.27;;;;;;;;;;5077431;28;20024;-77
2023/02/16 08:32:39;;;;;;;47.23;27.47;;;;;;;;;;5079426;28;20032;-78
2023/02/16 08:35:05;;;;;;;48.43;27.30;;;;;;;;;;5079876;28;20024;-77
2023/02/16 08:37:34;;;;;;;46.37;27.27;;;;;;;;;;5063077;28;20409;-77
2023/02/16 08:40:01;;;;;;;47.67;27.90;;;;;;;;;;5080398;28;20028;-76
2023/02/16 08:42:27;;;;;;;46.87;27.50;;;;;;;;;;5065956;28;20039;-79
2023/02/16 08:44:53;;;;;;;47.67;28.77;;;;;;;;;;5106990;28;20020;-79
2023/02/16 08:47:19;;;;;;;49.77;28.70;;;;;;;;;;5078911;28;20024;-78
2023/02/16 08:49:48;;;;;;;45.20;27.67;;;;;;;;;;5099207;28;20024;-78
2023/02/16 08:52:15;;;;;;;47.80;28.03;;;;;;;;;;5077803;28;20032;-79
2023/02/16 08:54:43;;;;;;;47.93;27.67;;;;;;;;;;5093291;28;20024;-78
2023/02/16 08:57:10;;;;;;;47.17;28.53;;;;;;;;;;5078513;28;20036;-79
2023/02/16 08:59:36;;;;;;;52.57;28.63;;;;;;;;;;5078248;28;20024;-78
2023/02/16 09:02:04;;;;;;;47.33;26.90;;;;;;;;;;5095308;28;20102;-79
2023/02/16 09:04:30;;;;;;;48.67;29.07;;;;;;;;;;5072508;28;20433;-78
2023/02/16 09:06:57;;;;;;;48.90;29.00;;;;;;;;;;5104640;28;20066;-78
2023/02/16 09:09:23;;;;;;;46.87;29.13;;;;;;;;;;5095288;28;20023;-78
2023/02/16 09:11:49;;;;;;;49.07;29.77;;;;;;;;;;5078063;28;20028;-77
2023/02/16 09:14:17;;;;;;;57.00;30.37;;;;;;;;;;5077576;28;20020;-77
2023/02/16 09:16:46;;;;;;;46.50;29.33;;;;;;;;;;5078065;28;20032;-78
2023/02/16 09:19:13;;;;;;;48.97;29.30;;;;;;;;;;5076490;28;20024;-77
2023/02/16 09:21:39;;;;;;;45.10;26.83;;;;;;;;;;5095425;28;20032;-77
2023/02/16 09:24:06;;;;;;;47.80;27.63;;;;;;;;;;5079751;28;20459;-79
2023/02/16 09:26:33;;;;;;;47.60;26.80;;;;;;;;;;5078350;28;20057;-78
2023/02/16 09:28:59;;;;;;;45.53;25.80;;;;;;;;;;5073736;28;20115;-78
2023/02/16 09:31:31;;;;;;;44.67;25.70;;;;;;;;;;5090718;28;20043;-79
2023/02/16 09:34:03;;;;;;;40.53;26.90;;;;;;;;;;5076979;28;20298;-79
2023/02/16 09:36:29;;;;;;;40.30;26.00;;;;;;;;;;5055448;28;20047;-79
2023/02/16 09:38:56;;;;;;;43.27;25.50;;;;;;;;;;5049034;28;20441;-77
2023/02/16 09:41:34;;;;;;;39.90;25.50;;;;;;;;;;5046068;28;20036;-79
2023/02/16 09:44:15;;;;;;;41.80;24.97;;;;;;;;;;5068701;28;20119;-78
2023/02/16 09:46:41;;;;;;;44.97;25.77;;;;;;;;;;5067207;28;20029;-77
2023/02/16 09:49:15;;;;;;;40.63;24.60;;;;;;;;;;5061915;28;20462;-79
2023/02/16 09:51:41;;;;;;;43.33;25.20;;;;;;;;;;5058731;28;20098;-77
2023/02/16 09:54:32;;;;;;;39.70;25.87;;;;;;;;;;5064204;28;20032;-78
2023/02/16 09:57:07;;;;;;;43.80;26.00;;;;;;;;;;5045877;28;20036;-78
2023/02/16 09:59:48;;;;;;;40.90;25.80;;;;;;;;;;5052853;28;20059;-79
2023/02/16 10:02:23;;;;;;;35.87;23.03;;;;;;;;;;5076150;28;20048;-78
2023/02/16 10:05:07;;;;;;;43.97;26.30;;;;;;;;;;5058977;28;20032;-78
2023/02/16 10:07:52;;;;;;;37.67;24.13;;;;;;;;;;5052233;28;20036;-79
2023/02/16 10:10:23;;;;;;;41.03;25.80;;;;;;;;;;5045824;28;20112;-78
2023/02/16 10:12:54;;;;;;;40.43;24.07;;;;;;;;;;5061468;28;20024;-78
2023/02/16 10:15:22;;;;;;;41.33;26.07;;;;;;;;;;5059559;28;20025;-79
2023/02/16 10:17:53;;;;;;;38.73;24.30;;;;;;;;;;5056486;28;20115;-79
2023/02/16 10:20:22;;;;;;;38.03;26.13;;;;;;;;;;5046698;28;20028;-77
2023/02/16 10:22:51;;;;;;;40.83;25.07;;;;;;;;;;5039631;28;20033;-78
2023/02/16 10:25:37;;;;;;;40.90;24.83;;;;;;;;;;5041451;28;20036;-77
2023/02/16 10:28:18;;;;;;;41.23;24.87;;;;;;;;;;5038748;28;20072;-76
2023/02/16 10:30:50;;;;;;;40.90;24.67;;;;;;;;;;5040058;28;20098;-76
2023/02/16 10:33:25;;;;;;;47.13;25.87;;;;;;;;;;5042604;28;20109;-77
2023/02/16 10:36:03;;;;;;;39.03;24.90;;;;;;;;;;5051269;28;20032;-75
2023/02/16 10:38:33;;;;;;;37.13;23.83;;;;;;;;;;5064998;28;20055;-78
2023/02/16 10:41:26;;;;;;;39.90;25.13;;;;;;;;;;5062141;28;20032;-77
2023/02/16 10:43:54;;;;;;;44.20;24.83;;;;;;;;;;5026255;28;20040;-77
2023/02/16 10:46:30;;;;;;;37.33;24.37;;;;;;;;;;5057107;28;21671;-77
2023/02/16 10:48:58;;;;;;;41.50;26.00;;;;;;;;;;5044854;28;20029;-76
2023/02/16 10:51:27;;;;;;;41.57;24.40;;;;;;;;;;5041633;28;20029;-77
2023/02/16 10:53:55;;;;;;;38.63;25.00;;;;;;;;;;5061823;28;20040;-78
2023/02/16 10:56:31;;;;;;;41.70;25.00;;;;;;;;;;5043446;28;20118;-77
2023/02/16 10:58:57;;;;;;;37.53;24.13;;;;;;;;;;5058292;28;20025;-77
2023/02/16 11:01:32;;;;;;;43.07;25.83;;;;;;;;;;5050043;28;20878;-77
2023/02/16 11:04:01;;;;;;;38.53;23.83;;;;;;;;;;5042650;28;20033;-76
2023/02/16 11:06:28;;;;;;;38.67;25.17;;;;;;;;;;5043024;28;20165;-77
2023/02/16 11:09:01;;;;;;;36.93;23.50;;;;;;;;;;5050078;28;20032;-77
2023/02/16 11:11:29;;;;;;;38.10;24.83;;;;;;;;;;5050910;28;20461;-77
2023/02/16 11:14:00;;;;;;;50.17;24.50;;;;;;;;;;5059697;28;20040;-76
2023/02/16 11:16:26;;;;;;;41.03;25.00;;;;;;;;;;5042719;28;20029;-76
2023/02/16 11:18:57;;;;;;;35.97;24.70;;;;;;;;;;5042172;28;20040;-76
2023/02/16 11:21:41;;;;;;;38.00;23.60;;;;;;;;;;5048206;28;20036;-77
2023/02/16 11:24:10;;;;;;;37.50;23.80;;;;;;;;;;5059214;28;20044;-76
2023/02/16 11:26:36;;;;;;;39.57;24.83;;;;;;;;;;5051231;28;20044;-76
2023/02/16 11:29:18;;;;;;;41.33;25.40;;;;;;;;;;5060607;28;20041;-75
2023/02/16 11:31:47;;;;;;;;;;;;;;;;;;5061045;28;20109;-75
2023/02/16 11:34:15;;;;;;;39.80;24.47;;;;;;;;;;5041217;28;19913;-77
2023/02/16 11:36:43;;;;;;;37.90;24.47;;;;;;;;;;5045118;28;20040;-76
2023/02/16 11:39:22;;;;;;;38.03;24.90;;;;;;;;;;5058490;28;20033;-76
2023/02/16 11:41:48;;;;;;;37.10;23.57;;;;;;;;;;5043396;28;20039;-75
2023/02/16 11:44:29;;;;;;;40.40;25.30;;;;;;;;;;5044555;28;20036;-75
2023/02/16 11:47:17;;;;;;;41.73;26.07;;;;;;;;;;5058585;28;20551;-77
2023/02/16 11:49:56;;;;;;;44.90;25.43;;;;;;;;;;5057292;28;20060;-75
2023/02/16 11:52:22;;;;;;;41.37;25.90;;;;;;;;;;5057294;28;20052;-76
2023/02/16 11:54:51;;;;;;;41.60;26.23;;;;;;;;;;5058825;28;20043;-76
2023/02/16 11:57:22;;;;;;;35.73;24.87;;;;;;;;;;5041653;28;20033;-76
2023/02/16 11:59:48;;;;;;;37.63;25.40;;;;;;;;;;5042106;28;20120;-76
2023/02/16 12:02:31;;;;;;;42.63;27.00;;;;;;;;;;5045243;28;20037;-78
2023/02/16 12:04:58;;;;;;;;;;;;;;;;;;5059179;28;20037;-78
2023/02/16 12:07:29;;;;;;;38.93;25.47;;;;;;;;;;5040813;28;20376;-79
2023/02/16 12:10:03;;;;;;;37.27;26.30;;;;;;;;;;5044890;28;20029;-77
2023/02/16 12:12:29;;;;;;;46.37;29.13;;;;;;;;;;5045936;28;20043;-77
2023/02/16 12:15:14;;;;;;;44.03;27.57;;;;;;;;;;5040623;28;20032;-76
2023/02/16 12:17:43;;;;;;;38.70;25.33;;;;;;;;;;5058466;28;20475;-75
2023/02/16 12:20:30;;;;;;;39.00;26.43;;;;;;;;;;5040266;28;20512;-77
2023/02/16 12:23:12;;;;;;;40.17;25.83;;;;;;;;;;5058585;28;20029;-77
2023/02/16 12:25:45;;;;;;;40.00;26.27;;;;;;;;;;5058012;28;20029;-75
2023/02/16 12:28:17;;;;;;;40.47;26.10;;;;;;;;;;5057850;28;20029;-75
2023/02/16 12:31:04;;;;;;;40.92;24.55;;;;;;;;;;5056890;28;20037;-77
2023/02/16 12:33:48;;;;;;;43.37;25.33;;;;;;;;;;5042026;28;20063;-77
2023/02/16 12:36:23;;;;;;;38.97;25.77;;;;;;;;;;5056868;28;20017;-76
2023/02/16 12:39:01;;;;;;;37.90;25.53;;;;;;;;;;5041668;28;20041;-77
2023/02/16 12:41:47;;;;;;;41.50;26.00;;;;;;;;;;5055328;28;20040;-77
2023/02/16 12:44:16;;;;;;;44.20;25.67;;;;;;;;;;5043963;28;20147;-77
2023/02/16 12:46:43;;;;;;;36.40;24.60;;;;;;;;;;5040515;28;20037;-77
2023/02/16 12:49:19;;;;;;;41.77;25.57;;;;;;;;;;5057983;28;20036;-76
2023/02/16 12:51:50;;;;;;;38.30;24.33;;;;;;;;;;5047523;28;20040;-78
2023/02/16 12:54:34;;;;;;;38.37;25.13;;;;;;;;;;5042270;28;20029;-78
2023/02/16 12:57:12;;;;;;;40.03;26.07;;;;;;;;;;5055747;28;20021;-77
2023/02/16 12:59:38;;;;;;;43.03;26.67;;;;;;;;;;5057424;28;20086;-77
2023/02/16 13:02:12;;;;;;;41.77;27.47;;;;;;;;;;5040523;28;20132;-77
2023/02/16 13:04:50;;;;;;;41.17;27.00;;;;;;;;;;5059718;28;20024;-78
2023/02/16 13:07:22;;;;;;;41.07;25.80;;;;;;;;;;5041040;28;20889;-77
2023/02/16 13:09:51;;;;;;;37.63;24.87;;;;;;;;;;5052198;28;20506;-77
2023/02/16 13:12:26;;;;;;;39.30;26.63;;;;;;;;;;5042386;28;20291;-77
2023/02/16 13:14:59;;;;;;;44.57;26.10;;;;;;;;;;5039632;28;20057;-77
2023/02/16 13:17:34;;;;;;;34.00;24.70;;;;;;;;;;5041056;28;20052;-76
2023/02/16 13:20:00;;;;;;;42.90;26.60;;;;;;;;;;5057343;28;20025;-77
2023/02/16 13:22:45;;;;;;;39.20;24.93;;;;;;;;;;5056261;28;20535;-75
2023/02/16 13:25:14;;;;;;;37.90;25.30;;;;;;;;;;5038808;28;20480;-75
2023/02/16 13:27:59;;;;;;;46.90;27.73;;;;;;;;;;5056268;28;20131;-78
2023/02/16 13:30:34;;;;;;;42.50;26.53;;;;;;;;;;5057515;28;20135;-78
2023/02/16 13:33:24;;;;;;;37.60;26.00;;;;;;;;;;5042464;28;20048;-78
2023/02/16 13:36:17;;;;;;;40.43;26.00;;;;;;;;;;5022050;28;20059;-76
2023/02/16 13:39:06;;;;;;;39.67;25.90;;;;;;;;;;5036907;28;20406;-78
2023/02/16 13:41:51;;;;;;;39.10;25.20;;;;;;;;;;5039175;28;20029;-78
2023/02/16 13:44:17;;;;;;;41.70;26.23;;;;;;;;;;5041012;28;20033;-77
2023/02/16 13:46:51;;;;;;;42.17;25.13;;;;;;;;;;5055248;28;20048;-75
2023/02/16 13:49:41;;;;;;;41.33;27.00;;;;;;;;;;5056889;28;20086;-78
2023/02/16 13:52:07;;;;;;;34.50;23.30;;;;;;;;;;5060136;28;20047;-78
2023/02/16 13:54:35;;;;;;;31.73;20.97;;;;;;;;;;5057016;28;20024;-78
2023/02/16 13:57:03;;;;;;;31.10;20.77;;;;;;;;;;5038459;28;20043;-77
2023/02/16 13:59:29;;;;;;;28.07;19.20;;;;;;;;;;5055674;28;20068;-77
2023/02/16 14:01:56;;;;;;;26.50;17.80;;;;;;;;;;5057630;28;20048;-76
2023/02/16 14:04:22;;;;;;;28.23;18.07;;;;;;;;;;5040800;28;20047;-76
2023/02/16 14:06:51;;;;;;;28.98;18.08;;;;;;;;;;5046471;28;20373;-78
2023/02/16 14:09:18;;;;;;;28.55;16.85;;;;;;;;;;5060835;28;20068;-76
2023/02/16 14:11:57;;;;;;;25.95;16.40;;;;;;;;;;5048821;28;20119;-76
2023/02/16 14:14:26;;;;;;;28.85;16.67;;;;;;;;;;5045569;28;20064;-76
2023/02/16 14:16:53;;;;;;;22.92;14.75;;;;;;;;;;5061052;28;20083;-77
2023/02/16 14:19:23;;;;;;;20.20;13.18;;;;;;;;;;5050935;28;20040;-76
2023/02/16 14:21:50;;;;;;;21.25;14.40;;;;;;;;;;5061661;28;20092;-75
2023/02/16 14:24:25;;;;;;;16.90;13.15;;;;;;;;;;5060272;28;20047;-77
2023/02/16 14:26:53;;;;;;;21.50;12.55;;;;;;;;;;5043840;28;20025;-77
2023/02/16 14:29:25;;;;;;;23.25;13.73;;;;;;;;;;5061183;28;20041;-75
2023/02/16 14:31:59;;;;;;;18.20;12.68;;;;;;;;;;5043864;28;20032;-77
2023/02/16 14:34:38;;;;;;;18.30;12.70;;;;;;;;;;5060038;28;20033;-77
2023/02/16 14:37:10;;;;;;;16.88;11.27;;;;;;;;;;5061211;28;20103;-78
2023/02/16 14:39:36;;;;;;;;;;;;;;;;;;5043232;28;20040;-77
2023/02/16 14:42:16;;;;;;;21.00;12.30;;;;;;;;;;5063518;28;20261;-77
2023/02/16 14:44:45;;;;;;;16.00;10.75;;;;;;;;;;5057223;28;20025;-77
2023/02/16 14:47:33;;;;;;;21.98;11.07;;;;;;;;;;5067028;28;20059;-78
2023/02/16 14:50:05;;;;;;;18.52;11.00;;;;;;;;;;5064638;28;20400;-77
2023/02/16 14:52:35;;;;;;;17.38;11.40;;;;;;;;;;5068320;28;20104;-78
2023/02/16 14:55:08;;;;;;;17.80;10.60;;;;;;;;;;5065486;28;20021;-78
2023/02/16 14:57:49;;;;;;;15.50;10.77;;;;;;;;;;5064668;28;20115;-77
2023/02/16 15:00:25;;;;;;;18.05;10.00;;;;;;;;;;5078243;28;20028;-77
2023/02/16 15:02:58;;;;;;;17.50;10.95;;;;;;;;;;5078679;28;20025;-77
2023/02/16 15:05:27;;;;;;;18.52;10.43;;;;;;;;;;5060932;28;20178;-79
2023/02/16 15:07:58;;;;;;;13.80;10.35;;;;;;;;;;5063615;28;20472;-77
2023/02/16 15:10:27;;;;;;;17.77;11.30;;;;;;;;;;5059823;28;20021;-77
2023/02/16 15:12:59;;;;;;;16.77;10.75;;;;;;;;;;5048972;28;20029;-76
2023/02/16 15:15:47;;;;;;;19.17;11.73;;;;;;;;;;5057203;28;20024;-77
2023/02/16 15:18:17;;;;;;;16.95;10.75;;;;;;;;;;5055807;28;20029;-76